createdAt,value
2018-10-19T00:00:03.745Z,782.54
2018-10-19T00:00:07.951Z,782.53
2018-10-19T00:00:12.049Z,782.55
2018-10-19T00:00:16.249Z,782.52
2018-10-19T00:00:20.451Z,782.51
2018-10-19T00:00:24.657Z,782.54
2018-10-19T00:00:28.863Z,782.53
2018-10-19T00:00:33.059Z,782.56
2018-10-19T00:00:37.257Z,782.54
2018-10-19T00:00:41.461Z,782.53
2018-10-19T00:00:45.552Z,782.55
2018-10-19T00:00:49.764Z,782.51
2018-10-19T00:00:53.757Z,782.53
2018-10-19T00:00:57.846Z,782.52
2018-10-19T00:01:01.941Z,782.51
2018-10-19T00:01:06.454Z,782.52
2018-10-19T00:01:10.654Z,782.52
2018-10-19T00:01:14.746Z,782.49
2018-10-19T00:01:19.062Z,782.49
2018-10-19T00:01:23.162Z,782.52
2018-10-19T00:01:27.378Z,782.47
2018-10-19T00:01:31.579Z,782.48
2018-10-19T00:01:35.791Z,782.49
2018-10-19T00:01:39.888Z,782.51
2018-10-19T00:01:43.988Z,782.45
2018-10-19T00:01:48.191Z,782.49
2018-10-19T00:01:52.282Z,782.5
2018-10-19T00:01:56.276Z,782.51
2018-10-19T00:02:00.472Z,782.47
2018-10-19T00:02:04.632Z,782.51
2018-10-19T00:02:08.724Z,782.47
2018-10-19T00:02:13.036Z,782.47
2018-10-19T00:02:17.350Z,782.48
2018-10-19T00:02:21.656Z,782.45
2018-10-19T00:02:25.751Z,782.47
2018-10-19T00:02:30.059Z,782.49
2018-10-19T00:02:34.165Z,782.48
2018-10-19T00:02:38.477Z,782.5
2018-10-19T00:02:42.469Z,782.46
2018-10-19T00:02:46.779Z,782.5
2018-10-19T00:02:50.876Z,782.49
2018-10-19T00:02:55.180Z,782.47
2018-10-19T00:02:59.665Z,782.49
2018-10-19T00:03:04.634Z,782.47
2018-10-19T00:03:09.208Z,782.47
2018-10-19T00:03:14.149Z,782.47
2018-10-19T00:03:18.458Z,782.46
2018-10-19T00:03:22.679Z,782.48
2018-10-19T00:03:26.777Z,782.45
2018-10-19T00:03:30.979Z,782.46
2018-10-19T00:03:35.075Z,782.48
2018-10-19T00:03:39.286Z,782.44
2018-10-19T00:03:43.496Z,782.46
2018-10-19T00:03:47.594Z,782.44
2018-10-19T00:03:51.791Z,782.44
2018-10-19T00:03:55.888Z,782.45
2018-10-19T00:04:00.203Z,782.38
2018-10-19T00:04:04.309Z,782.42
2018-10-19T00:04:08.410Z,782.43
2018-10-19T00:04:12.504Z,782.43
2018-10-19T00:04:16.387Z,782.42
2018-10-19T00:04:20.706Z,782.43
2018-10-19T00:04:25.014Z,782.4
2018-10-19T00:04:28.902Z,782.48
2018-10-19T00:04:32.891Z,782.46
2018-10-19T00:04:36.902Z,782.48
2018-10-19T00:04:41.015Z,782.44
2018-10-19T00:04:45.261Z,782.47
2018-10-19T00:04:49.356Z,782.43
2018-10-19T00:04:53.478Z,782.47
2018-10-19T00:04:57.683Z,782.48
2018-10-19T00:05:02.152Z,782.46
2018-10-19T00:05:06.610Z,782.45
2018-10-19T00:05:11.147Z,782.45
2018-10-19T00:05:16.092Z,782.48
2018-10-19T00:05:20.734Z,782.5
2018-10-19T00:05:24.835Z,782.47
2018-10-19T00:05:29.043Z,782.48
2018-10-19T00:05:33.247Z,782.49
2018-10-19T00:05:37.451Z,782.47
2018-10-19T00:05:41.654Z,782.47
2018-10-19T00:05:45.865Z,782.46
2018-10-19T00:05:49.957Z,782.44
2018-10-19T00:05:54.163Z,782.45
2018-10-19T00:05:58.372Z,782.46
2018-10-19T00:06:02.363Z,782.47
2018-10-19T00:06:06.563Z,782.47
2018-10-19T00:06:10.660Z,782.48
2018-10-19T00:06:14.761Z,782.48
2018-10-19T00:06:18.873Z,782.45
2018-10-19T00:06:22.977Z,782.42
2018-10-19T00:06:27.189Z,782.43
2018-10-19T00:06:31.395Z,782.46
2018-10-19T00:06:35.491Z,782.47
2018-10-19T00:06:39.607Z,782.46
2018-10-19T00:06:43.601Z,782.45
2018-10-19T00:06:47.699Z,782.4
2018-10-19T00:06:51.798Z,782.44
2018-10-19T00:06:56.005Z,782.42
2018-10-19T00:07:00.108Z,782.43
2018-10-19T00:07:04.204Z,782.47
2018-10-19T00:07:08.350Z,782.45
2018-10-19T00:07:12.458Z,782.43
2018-10-19T00:07:16.354Z,782.48
2018-10-19T00:07:20.450Z,782.46
2018-10-19T00:07:24.764Z,782.45
2018-10-19T00:07:29.076Z,782.42
2018-10-19T00:07:33.182Z,782.46
2018-10-19T00:07:37.281Z,782.44
2018-10-19T00:07:41.376Z,782.45
2018-10-19T00:07:45.156Z,782.44
2018-10-19T00:07:49.145Z,782.41
2018-10-19T00:07:53.242Z,782.43
2018-10-19T00:07:57.348Z,782.42
2018-10-19T00:08:01.448Z,782.43
2018-10-19T00:08:05.441Z,782.42
2018-10-19T00:08:09.538Z,782.4
2018-10-19T00:08:13.647Z,782.39
2018-10-19T00:08:17.851Z,782.42
2018-10-19T00:08:21.836Z,782.4
2018-10-19T00:08:25.938Z,782.4
2018-10-19T00:08:30.140Z,782.4
2018-10-19T00:08:34.239Z,782.39
2018-10-19T00:08:38.229Z,782.39
2018-10-19T00:08:42.328Z,782.4
2018-10-19T00:08:46.323Z,782.4
2018-10-19T00:08:50.419Z,782.38
2018-10-19T00:08:54.629Z,782.36
2018-10-19T00:08:58.840Z,782.39
2018-10-19T00:09:03.482Z,782.4
2018-10-19T00:09:07.782Z,782.37
2018-10-19T00:09:12.759Z,782.32
2018-10-19T00:09:17.474Z,782.31
2018-10-19T00:09:21.799Z,782.36
2018-10-19T00:09:58.159Z,782.28
2018-10-19T00:10:02.275Z,782.31
2018-10-19T00:10:06.380Z,782.28
2018-10-19T00:10:10.260Z,782.3
2018-10-19T00:10:14.259Z,782.33
2018-10-19T00:10:18.569Z,782.32
2018-10-19T00:10:22.675Z,782.3
2018-10-19T00:10:26.771Z,782.28
2018-10-19T00:10:30.993Z,782.3
2018-10-19T00:10:35.303Z,782.31
2018-10-19T00:10:39.519Z,782.3
2018-10-19T00:10:43.613Z,782.3
2018-10-19T00:10:47.823Z,782.31
2018-10-19T00:10:51.969Z,782.28
2018-10-19T00:10:56.327Z,782.32
2018-10-19T00:11:00.720Z,782.29
2018-10-19T00:11:04.778Z,782.26
2018-10-19T00:11:09.150Z,782.28
2018-10-19T00:11:14.416Z,782.27
2018-10-19T00:11:19.304Z,782.3
2018-10-19T00:11:23.400Z,782.29
2018-10-19T00:11:27.504Z,782.25
2018-10-19T00:11:31.703Z,782.27
2018-10-19T00:11:35.805Z,782.23
2018-10-19T00:11:40.008Z,782.26
2018-10-19T00:11:44.117Z,782.25
2018-10-19T00:11:48.208Z,782.25
2018-10-19T00:11:52.197Z,782.23
2018-10-19T00:11:56.296Z,782.22
2018-10-19T00:12:00.391Z,782.22
2018-10-19T00:12:04.274Z,782.24
2018-10-19T00:12:08.475Z,782.23
2018-10-19T00:12:12.475Z,782.22
2018-10-19T00:12:16.359Z,782.24
2018-10-19T00:12:20.671Z,782.23
2018-10-19T00:12:25.015Z,782.21
2018-10-19T00:12:29.214Z,782.19
2018-10-19T00:12:33.522Z,782.21
2018-10-19T00:12:37.862Z,782.21
2018-10-19T00:12:42.530Z,782.21
2018-10-19T00:12:47.066Z,782.22
2018-10-19T00:12:51.738Z,782.22
2018-10-19T00:12:56.090Z,782.19
2018-10-19T00:13:00.877Z,782.18
2018-10-19T00:13:05.085Z,782.21
2018-10-19T00:13:09.393Z,782.21
2018-10-19T00:13:13.377Z,782.15
2018-10-19T00:13:17.475Z,782.21
2018-10-19T00:13:21.685Z,782.18
2018-10-19T00:13:25.776Z,782.19
2018-10-19T00:13:30.083Z,782.16
2018-10-19T00:13:34.395Z,782.15
2018-10-19T00:13:38.595Z,782.18
2018-10-19T00:13:42.686Z,782.17
2018-10-19T00:13:46.892Z,782.17
2018-10-19T00:13:50.981Z,782.2
2018-10-19T00:13:55.181Z,782.18
2018-10-19T00:13:59.277Z,782.19
2018-10-19T00:14:03.262Z,782.17
2018-10-19T00:14:07.473Z,782.17
2018-10-19T00:14:11.780Z,782.17
2018-10-19T00:14:15.770Z,782.15
2018-10-19T00:14:20.078Z,782.17
2018-10-19T00:14:24.294Z,782.19
2018-10-19T00:14:28.654Z,782.18
2018-10-19T00:14:32.645Z,782.2
2018-10-19T00:14:36.902Z,782.15
2018-10-19T00:14:41.206Z,782.15
2018-10-19T00:14:45.512Z,782.14
2018-10-19T00:14:49.398Z,782.18
2018-10-19T00:14:53.538Z,782.17
2018-10-19T00:14:57.945Z,782.16
2018-10-19T00:15:02.468Z,782.16
2018-10-19T00:15:06.473Z,782.14
2018-10-19T00:15:11.241Z,782.08
2018-10-19T00:15:15.993Z,782.17
2018-10-19T00:15:20.410Z,782.13
2018-10-19T00:15:24.182Z,782.16
2018-10-19T00:15:28.383Z,782.16
2018-10-19T00:15:32.370Z,782.16
2018-10-19T00:15:36.360Z,782.17
2018-10-19T00:15:40.559Z,782.16
2018-10-19T00:15:44.766Z,782.14
2018-10-19T00:15:48.862Z,782.15
2018-10-19T00:15:52.951Z,782.16
2018-10-19T00:15:57.270Z,782.15
2018-10-19T00:16:01.471Z,782.13
2018-10-19T00:16:05.516Z,782.15
2018-10-19T00:16:09.720Z,782.14
2018-10-19T00:16:13.711Z,782.16
2018-10-19T00:16:17.809Z,782.16
2018-10-19T00:16:21.907Z,782.15
2018-10-19T00:16:26.229Z,782.13
2018-10-19T00:16:30.433Z,782.13
2018-10-19T00:16:34.536Z,782.14
2018-10-19T00:16:38.842Z,782.19
2018-10-19T00:16:43.054Z,782.14
2018-10-19T00:16:47.371Z,782.13
2018-10-19T00:16:51.458Z,782.11
2018-10-19T00:16:55.617Z,782.18
2018-10-19T00:17:00.301Z,782.16
2018-10-19T00:17:04.813Z,782.17
2018-10-19T00:17:09.114Z,782.18
2018-10-19T00:17:13.760Z,782.18
2018-10-19T00:17:18.187Z,782.17
2018-10-19T00:17:22.288Z,782.16
2018-10-19T00:17:26.393Z,782.15
2018-10-19T00:17:30.736Z,782.15
2018-10-19T00:17:34.835Z,782.12
2018-10-19T00:17:38.923Z,782.13
2018-10-19T00:17:43.121Z,782.14
2018-10-19T00:17:47.323Z,782.14
2018-10-19T00:17:51.634Z,782.15
2018-10-19T00:17:55.839Z,782.11
2018-10-19T00:18:00.037Z,782.14
2018-10-19T00:18:04.026Z,782.12
2018-10-19T00:18:08.011Z,782.14
2018-10-19T00:18:12.223Z,782.16
2018-10-19T00:18:16.434Z,782.11
2018-10-19T00:18:20.645Z,782.18
2018-10-19T00:18:24.848Z,782.16
2018-10-19T00:18:28.940Z,782.09
2018-10-19T00:18:33.253Z,782.14
2018-10-19T00:18:37.463Z,782.15
2018-10-19T00:18:41.771Z,782.15
2018-10-19T00:18:45.967Z,782.15
2018-10-19T00:18:50.056Z,782.13
2018-10-19T00:18:54.150Z,782.15
2018-10-19T00:18:58.358Z,782.15
2018-10-19T00:19:02.464Z,782.13
2018-10-19T00:19:06.680Z,782.14
2018-10-19T00:19:11.007Z,782.15
2018-10-19T00:19:15.106Z,782.13
2018-10-19T00:19:19.301Z,782.14
2018-10-19T00:19:23.181Z,782.13
2018-10-19T00:19:27.388Z,782.14
2018-10-19T00:19:31.612Z,782.16
2018-10-19T00:19:35.926Z,782.12
2018-10-19T00:19:40.240Z,782.14
2018-10-19T00:19:44.555Z,782.16
2018-10-19T00:19:48.868Z,782.15
2018-10-19T00:19:53.171Z,782.13
2018-10-19T00:19:57.374Z,782.11
2018-10-19T00:20:01.467Z,782.15
2018-10-19T00:20:05.357Z,782.16
2018-10-19T00:20:09.665Z,782.15
2018-10-19T00:20:13.654Z,782.15
2018-10-19T00:20:17.762Z,782.13
2018-10-19T00:20:21.964Z,782.16
2018-10-19T00:20:26.168Z,782.15
2018-10-19T00:20:30.486Z,782.15
2018-10-19T00:20:34.682Z,782.1
2018-10-19T00:20:38.985Z,782.16
2018-10-19T00:20:43.283Z,782.13
2018-10-19T00:20:47.385Z,782.16
2018-10-19T00:20:51.581Z,782.14
2018-10-19T00:20:55.899Z,782.13
2018-10-19T00:21:00.228Z,782.14
2018-10-19T00:21:04.879Z,782.11
2018-10-19T00:21:09.459Z,782.14
2018-10-19T00:21:14.410Z,782.14
2018-10-19T00:21:18.979Z,782.13
2018-10-19T00:21:23.303Z,782.15
2018-10-19T00:21:27.614Z,782.1
2018-10-19T00:21:31.817Z,782.12
2018-10-19T00:21:36.120Z,782.13
2018-10-19T00:21:40.213Z,782.07
2018-10-19T00:21:44.306Z,782.12
2018-10-19T00:21:48.623Z,782.11
2018-10-19T00:21:52.604Z,782.12
2018-10-19T00:21:56.692Z,782.13
2018-10-19T00:22:01.039Z,782.1
2018-10-19T00:22:05.267Z,782.12
2018-10-19T00:22:09.473Z,782.08
2018-10-19T00:22:13.571Z,782.1
2018-10-19T00:22:17.670Z,782.08
2018-10-19T00:22:21.760Z,782.08
2018-10-19T00:22:25.860Z,782.07
2018-10-19T00:22:30.197Z,782.08
2018-10-19T00:22:34.400Z,782.11
2018-10-19T00:22:38.716Z,782.11
2018-10-19T00:22:42.923Z,782.09
2018-10-19T00:22:47.228Z,782.08
2018-10-19T00:22:51.316Z,782.1
2018-10-19T00:22:55.746Z,782.09
2018-10-19T00:23:00.213Z,782.1
2018-10-19T00:23:04.395Z,782.07
2018-10-19T00:23:08.995Z,782.08
2018-10-19T00:23:13.860Z,782.06
2018-10-19T00:23:18.471Z,782.08
2018-10-19T00:23:22.779Z,782.06
2018-10-19T00:23:26.999Z,782.03
2018-10-19T00:23:31.205Z,782.05
2018-10-19T00:23:35.451Z,781.99
2018-10-19T00:23:39.757Z,782
2018-10-19T00:23:43.960Z,781.98
2018-10-19T00:23:48.052Z,781.99
2018-10-19T00:23:52.269Z,782
2018-10-19T00:23:56.371Z,782.05
2018-10-19T00:24:00.680Z,782.02
2018-10-19T00:24:04.927Z,781.97
2018-10-19T00:24:09.033Z,781.94
2018-10-19T00:24:13.028Z,781.93
2018-10-19T00:24:17.339Z,782
2018-10-19T00:24:21.660Z,781.98
2018-10-19T00:24:25.869Z,781.99
2018-10-19T00:24:29.961Z,781.97
2018-10-19T00:24:34.169Z,781.94
2018-10-19T00:24:38.378Z,781.97
2018-10-19T00:24:42.580Z,781.97
2018-10-19T00:24:46.782Z,781.97
2018-10-19T00:24:50.979Z,781.97
2018-10-19T00:24:55.288Z,781.95
2018-10-19T00:24:59.379Z,781.93
2018-10-19T00:25:03.261Z,781.97
2018-10-19T00:25:07.464Z,781.94
2018-10-19T00:25:11.568Z,781.94
2018-10-19T00:25:15.662Z,781.96
2018-10-19T00:25:19.861Z,781.93
2018-10-19T00:25:24.060Z,781.91
2018-10-19T00:25:28.363Z,781.91
2018-10-19T00:25:32.679Z,781.91
2018-10-19T00:25:36.981Z,781.9
2018-10-19T00:25:41.182Z,781.89
2018-10-19T00:25:45.402Z,781.85
2018-10-19T00:25:49.616Z,781.82
2018-10-19T00:25:53.913Z,781.84
2018-10-19T00:25:58.116Z,781.8
2018-10-19T00:26:02.323Z,781.84
2018-10-19T00:26:06.419Z,781.83
2018-10-19T00:26:10.722Z,781.82
2018-10-19T00:26:14.922Z,781.84
2018-10-19T00:26:19.124Z,781.79
2018-10-19T00:26:23.231Z,781.79
2018-10-19T00:26:27.553Z,781.76
2018-10-19T00:26:31.748Z,781.76
2018-10-19T00:26:35.738Z,781.75
2018-10-19T00:26:40.043Z,781.7
2018-10-19T00:26:44.252Z,781.72
2018-10-19T00:26:48.565Z,781.68
2018-10-19T00:26:52.786Z,781.69
2018-10-19T00:26:57.134Z,781.68
2018-10-19T00:27:01.610Z,781.68
2018-10-19T00:27:06.791Z,781.69
2018-10-19T00:27:11.268Z,781.69
2018-10-19T00:27:16.135Z,781.67
2018-10-19T00:27:20.504Z,781.58
2018-10-19T00:27:24.615Z,781.6
2018-10-19T00:27:28.825Z,781.63
2018-10-19T00:27:32.921Z,781.64
2018-10-19T00:27:37.116Z,781.6
2018-10-19T00:27:41.262Z,781.59
2018-10-19T00:27:45.354Z,781.57
2018-10-19T00:27:49.561Z,781.61
2018-10-19T00:27:53.764Z,781.59
2018-10-19T00:27:57.895Z,781.59
2018-10-19T00:28:01.986Z,781.59
2018-10-19T00:28:06.240Z,781.57
2018-10-19T00:28:10.344Z,781.53
2018-10-19T00:28:14.435Z,781.55
2018-10-19T00:28:18.741Z,781.51
2018-10-19T00:28:22.848Z,781.53
2018-10-19T00:28:26.953Z,781.5
2018-10-19T00:28:31.054Z,781.49
2018-10-19T00:28:35.373Z,781.53
2018-10-19T00:28:39.691Z,781.53
2018-10-19T00:28:44.001Z,781.5
2018-10-19T00:28:48.311Z,781.5
2018-10-19T00:28:52.643Z,781.47
2018-10-19T00:28:56.915Z,781.44
2018-10-19T00:29:01.680Z,781.41
2018-10-19T00:29:06.378Z,781.43
2018-10-19T00:29:11.435Z,781.41
2018-10-19T00:29:16.634Z,781.38
2018-10-19T00:29:20.970Z,781.39
2018-10-19T00:29:25.169Z,781.39
2018-10-19T00:29:29.050Z,781.41
2018-10-19T00:29:33.251Z,781.38
2018-10-19T00:29:37.575Z,781.34
2018-10-19T00:29:41.883Z,781.37
2018-10-19T00:29:46.084Z,781.3
2018-10-19T00:29:50.399Z,781.31
2018-10-19T00:29:54.489Z,781.27
2018-10-19T00:29:58.699Z,781.29
2018-10-19T00:30:02.589Z,781.28
2018-10-19T00:30:06.907Z,781.29
2018-10-19T00:30:11.121Z,781.28
2018-10-19T00:30:15.452Z,781.26
2018-10-19T00:30:19.689Z,781.25
2018-10-19T00:30:23.801Z,781.22
2018-10-19T00:30:28.009Z,781.22
2018-10-19T00:30:31.995Z,781.22
2018-10-19T00:30:36.200Z,781.19
2018-10-19T00:30:40.402Z,781.18
2018-10-19T00:30:44.621Z,781.17
2018-10-19T00:30:48.929Z,781.21
2018-10-19T00:30:53.126Z,781.17
2018-10-19T00:30:57.336Z,781.16
2018-10-19T00:31:01.539Z,781.17
2018-10-19T00:31:05.634Z,781.16
2018-10-19T00:31:09.842Z,781.15
2018-10-19T00:31:14.123Z,781.14
2018-10-19T00:31:18.320Z,781.09
2018-10-19T00:31:22.632Z,781.12
2018-10-19T00:31:26.951Z,781.09
2018-10-19T00:31:31.155Z,781.1
2018-10-19T00:31:35.360Z,781.09
2018-10-19T00:31:39.669Z,781.06
2018-10-19T00:31:43.983Z,781.1
2018-10-19T00:31:48.187Z,781.07
2018-10-19T00:31:52.497Z,781.07
2018-10-19T00:31:56.499Z,781.08
2018-10-19T00:32:00.634Z,781.06
2018-10-19T00:32:04.950Z,781.08
2018-10-19T00:32:09.159Z,781.02
2018-10-19T00:32:13.474Z,781.06
2018-10-19T00:32:17.781Z,780.99
2018-10-19T00:32:22.098Z,781.04
2018-10-19T00:32:26.415Z,781.03
2018-10-19T00:32:30.623Z,781.03
2018-10-19T00:32:34.831Z,781.03
2018-10-19T00:32:39.144Z,780.99
2018-10-19T00:32:43.448Z,781
2018-10-19T00:32:47.543Z,780.99
2018-10-19T00:32:51.798Z,780.98
2018-10-19T00:32:56.286Z,780.91
2018-10-19T00:33:00.660Z,780.94
2018-10-19T00:33:05.038Z,780.94
2018-10-19T00:33:09.837Z,780.97
2018-10-19T00:33:14.900Z,780.91
2018-10-19T00:33:19.407Z,780.93
2018-10-19T00:33:23.627Z,780.96
2018-10-19T00:33:27.972Z,780.96
2018-10-19T00:33:32.286Z,780.93
2018-10-19T00:33:36.609Z,780.95
2018-10-19T00:33:40.921Z,780.92
2018-10-19T00:33:45.229Z,780.85
2018-10-19T00:33:49.441Z,780.91
2018-10-19T00:33:53.751Z,780.91
2018-10-19T00:33:58.082Z,780.9
2018-10-19T00:34:02.287Z,780.82
2018-10-19T00:34:06.497Z,780.84
2018-10-19T00:34:10.592Z,780.86
2018-10-19T00:34:14.689Z,780.86
2018-10-19T00:34:19.008Z,780.81
2018-10-19T00:34:23.105Z,780.78
2018-10-19T00:34:27.235Z,780.78
2018-10-19T00:34:31.435Z,780.76
2018-10-19T00:34:35.756Z,780.75
2018-10-19T00:34:39.957Z,780.74
2018-10-19T00:34:43.966Z,780.72
2018-10-19T00:34:48.277Z,780.72
2018-10-19T00:34:52.264Z,780.73
2018-10-19T00:34:56.820Z,780.71
2018-10-19T00:35:01.457Z,780.71
2018-10-19T00:35:06.069Z,780.7
2018-10-19T00:35:11.016Z,780.67
2018-10-19T00:35:15.646Z,780.69
2018-10-19T00:35:19.964Z,780.65
2018-10-19T00:35:24.064Z,780.65
2018-10-19T00:35:28.063Z,780.62
2018-10-19T00:35:32.277Z,780.61
2018-10-19T00:35:36.590Z,780.61
2018-10-19T00:35:40.803Z,780.55
2018-10-19T00:35:45.007Z,780.56
2018-10-19T00:35:49.315Z,780.56
2018-10-19T00:35:53.518Z,780.6
2018-10-19T00:35:57.823Z,780.57
2018-10-19T00:36:02.137Z,780.57
2018-10-19T00:36:06.234Z,780.56
2018-10-19T00:36:10.555Z,780.54
2018-10-19T00:36:14.870Z,780.53
2018-10-19T00:36:18.975Z,780.5
2018-10-19T00:36:23.296Z,780.46
2018-10-19T00:36:27.505Z,780.47
2018-10-19T00:36:31.758Z,780.48
2018-10-19T00:36:36.234Z,780.46
2018-10-19T00:36:40.308Z,780.47
2018-10-19T00:36:45.091Z,780.45
2018-10-19T00:36:49.365Z,780.44
2018-10-19T00:36:54.599Z,780.38
2018-10-19T00:36:59.030Z,780.38
2018-10-19T00:37:03.247Z,780.41
2018-10-19T00:37:07.458Z,780.38
2018-10-19T00:37:11.772Z,780.39
2018-10-19T00:37:15.670Z,780.42
2018-10-19T00:37:19.772Z,780.39
2018-10-19T00:37:23.980Z,780.41
2018-10-19T00:37:28.185Z,780.37
2018-10-19T00:37:32.391Z,780.35
2018-10-19T00:37:36.713Z,780.37
2018-10-19T00:37:40.708Z,780.35
2018-10-19T00:37:44.918Z,780.35
2018-10-19T00:37:49.231Z,780.35
2018-10-19T00:37:53.440Z,780.35
2018-10-19T00:37:57.536Z,780.35
2018-10-19T00:38:01.739Z,780.32
2018-10-19T00:38:05.960Z,780.32
2018-10-19T00:38:10.168Z,780.27
2018-10-19T00:38:14.267Z,780.28
2018-10-19T00:38:18.472Z,780.29
2018-10-19T00:38:22.677Z,780.27
2018-10-19T00:38:26.989Z,780.27
2018-10-19T00:38:31.091Z,780.29
2018-10-19T00:38:35.403Z,780.28
2018-10-19T00:38:39.620Z,780.25
2018-10-19T00:38:43.938Z,780.25
2018-10-19T00:38:48.138Z,780.24
2018-10-19T00:38:52.359Z,780.24
2018-10-19T00:38:56.728Z,780.24
2018-10-19T00:39:01.264Z,780.21
2018-10-19T00:39:05.382Z,780.19
2018-10-19T00:39:10.157Z,780.18
2018-10-19T00:39:14.837Z,780.17
2018-10-19T00:39:19.681Z,780.16
2018-10-19T00:39:23.892Z,780.19
2018-10-19T00:39:27.886Z,780.16
2018-10-19T00:39:32.087Z,780.14
2018-10-19T00:39:36.399Z,780.16
2018-10-19T00:39:40.490Z,780.1
2018-10-19T00:39:44.804Z,780.11
2018-10-19T00:39:48.903Z,780.14
2018-10-19T00:39:53.213Z,780.1
2018-10-19T00:39:57.524Z,780.13
2018-10-19T00:40:01.726Z,780.09
2018-10-19T00:40:05.727Z,780.04
2018-10-19T00:40:09.837Z,780.07
2018-10-19T00:40:14.157Z,780.05
2018-10-19T00:40:18.365Z,780.08
2018-10-19T00:40:22.460Z,780.05
2018-10-19T00:40:26.768Z,780.05
2018-10-19T00:40:31.083Z,780.04
2018-10-19T00:40:35.396Z,780.02
2018-10-19T00:40:39.387Z,780
2018-10-19T00:40:43.699Z,780.03
2018-10-19T00:40:47.901Z,779.98
2018-10-19T00:40:52.023Z,780.01
2018-10-19T00:40:56.336Z,779.99
2018-10-19T00:41:00.778Z,780.02
2018-10-19T00:41:05.238Z,779.99
2018-10-19T00:41:09.812Z,779.98
2018-10-19T00:41:15.027Z,779.96
2018-10-19T00:41:19.748Z,779.95
2018-10-19T00:41:23.957Z,779.97
2018-10-19T00:41:28.156Z,779.95
2018-10-19T00:41:32.361Z,779.94
2018-10-19T00:41:36.673Z,779.96
2018-10-19T00:41:40.776Z,779.9
2018-10-19T00:41:44.975Z,779.94
2018-10-19T00:41:48.966Z,779.92
2018-10-19T00:41:53.276Z,779.93
2018-10-19T00:41:57.589Z,779.92
2018-10-19T00:42:01.940Z,779.91
2018-10-19T00:42:06.141Z,779.9
2018-10-19T00:42:10.344Z,779.89
2018-10-19T00:42:14.547Z,779.87
2018-10-19T00:42:18.853Z,779.86
2018-10-19T00:42:22.958Z,779.88
2018-10-19T00:42:27.270Z,779.79
2018-10-19T00:42:31.364Z,779.82
2018-10-19T00:42:35.673Z,779.79
2018-10-19T00:42:39.885Z,779.81
2018-10-19T00:42:44.086Z,779.83
2018-10-19T00:42:48.403Z,779.84
2018-10-19T00:42:52.723Z,779.84
2018-10-19T00:42:56.933Z,779.83
2018-10-19T00:43:01.131Z,779.78
2018-10-19T00:43:05.335Z,779.79
2018-10-19T00:43:09.544Z,779.77
2018-10-19T00:43:13.633Z,779.76
2018-10-19T00:43:17.834Z,779.77
2018-10-19T00:43:21.935Z,779.75
2018-10-19T00:43:26.031Z,779.72
2018-10-19T00:43:30.233Z,779.71
2018-10-19T00:43:34.434Z,779.73
2018-10-19T00:43:38.645Z,779.73
2018-10-19T00:43:42.878Z,779.72
2018-10-19T00:43:47.080Z,779.7
2018-10-19T00:43:51.393Z,779.71
2018-10-19T00:43:55.707Z,779.67
2018-10-19T00:43:59.802Z,779.73
2018-10-19T00:44:03.790Z,779.67
2018-10-19T00:44:08.113Z,779.68
2018-10-19T00:44:12.330Z,779.69
2018-10-19T00:44:16.647Z,779.65
2018-10-19T00:44:20.961Z,779.65
2018-10-19T00:44:25.070Z,779.64
2018-10-19T00:44:29.168Z,779.6
2018-10-19T00:44:33.481Z,779.64
2018-10-19T00:44:37.783Z,779.65
2018-10-19T00:44:42.098Z,779.63
2018-10-19T00:44:46.195Z,779.58
2018-10-19T00:44:50.504Z,779.57
2018-10-19T00:44:54.940Z,779.57
2018-10-19T00:44:59.220Z,779.56
2018-10-19T00:45:04.168Z,779.55
2018-10-19T00:45:09.098Z,779.55
2018-10-19T00:45:14.003Z,779.55
2018-10-19T00:45:18.411Z,779.57
2018-10-19T00:45:22.507Z,779.59
2018-10-19T00:45:26.704Z,779.54
2018-10-19T00:45:30.807Z,779.56
2018-10-19T00:45:34.901Z,779.56
2018-10-19T00:45:39.000Z,779.57
2018-10-19T00:45:43.200Z,779.56
2018-10-19T00:45:47.409Z,779.54
2018-10-19T00:45:51.393Z,779.48
2018-10-19T00:45:55.715Z,779.48
2018-10-19T00:45:59.959Z,779.51
2018-10-19T00:46:04.060Z,779.51
2018-10-19T00:46:08.262Z,779.5
2018-10-19T00:46:12.620Z,779.53
2018-10-19T00:46:16.928Z,779.49
2018-10-19T00:46:21.236Z,779.52
2018-10-19T00:46:25.437Z,779.53
2018-10-19T00:46:29.645Z,779.48
2018-10-19T00:46:33.642Z,779.48
2018-10-19T00:46:37.957Z,779.49
2018-10-19T00:46:42.271Z,779.47
2018-10-19T00:46:46.469Z,779.48
2018-10-19T00:46:50.674Z,779.49
2018-10-19T00:46:55.099Z,779.44
2018-10-19T00:46:59.519Z,779.45
2018-10-19T00:47:04.158Z,779.48
2018-10-19T00:47:09.070Z,779.46
2018-10-19T00:47:13.941Z,779.44
2018-10-19T00:47:18.702Z,779.44
2018-10-19T00:47:23.023Z,779.42
2018-10-19T00:47:27.230Z,779.42
2018-10-19T00:47:31.477Z,779.42
2018-10-19T00:47:35.694Z,779.43
2018-10-19T00:47:40.009Z,779.4
2018-10-19T00:47:44.332Z,779.43
2018-10-19T00:47:48.638Z,779.39
2018-10-19T00:47:52.848Z,779.38
2018-10-19T00:47:57.155Z,779.39
2018-10-19T00:48:01.354Z,779.38
2018-10-19T00:48:05.339Z,779.38
2018-10-19T00:48:09.330Z,779.37
2018-10-19T00:48:13.536Z,779.34
2018-10-19T00:48:17.836Z,779.37
2018-10-19T00:48:22.150Z,779.36
2018-10-19T00:48:26.354Z,779.35
2018-10-19T00:48:30.661Z,779.36
2018-10-19T00:48:34.857Z,779.32
2018-10-19T00:48:39.170Z,779.32
2018-10-19T00:48:43.264Z,779.33
2018-10-19T00:48:47.365Z,779.32
2018-10-19T00:48:51.568Z,779.32
2018-10-19T00:48:55.773Z,779.31
2018-10-19T00:49:00.086Z,779.27
2018-10-19T00:49:04.199Z,779.27
2018-10-19T00:49:08.506Z,779.27
2018-10-19T00:49:12.819Z,779.33
2018-10-19T00:49:17.021Z,779.33
2018-10-19T00:49:21.114Z,779.35
2018-10-19T00:49:25.354Z,779.3
2018-10-19T00:49:29.704Z,779.3
2018-10-19T00:49:33.909Z,779.31
2018-10-19T00:49:38.114Z,779.31
2018-10-19T00:49:42.208Z,779.27
2018-10-19T00:49:46.199Z,779.29
2018-10-19T00:49:50.508Z,779.28
2018-10-19T00:49:54.734Z,779.27
2018-10-19T00:49:59.041Z,779.29
2018-10-19T00:50:03.136Z,779.3
2018-10-19T00:50:07.024Z,779.3
2018-10-19T00:50:11.235Z,779.28
2018-10-19T00:50:15.551Z,779.31
2018-10-19T00:50:19.753Z,779.29
2018-10-19T00:50:23.759Z,779.26
2018-10-19T00:50:28.074Z,779.27
2018-10-19T00:50:32.385Z,779.32
2018-10-19T00:50:36.537Z,779.31
2018-10-19T00:50:40.526Z,779.29
2018-10-19T00:50:44.740Z,779.28
2018-10-19T00:50:49.052Z,779.28
2018-10-19T00:50:53.410Z,779.27
2018-10-19T00:50:58.006Z,779.26
2018-10-19T00:51:02.440Z,779.28
2018-10-19T00:51:07.490Z,779.29
2018-10-19T00:51:12.710Z,779.28
2018-10-19T00:51:17.873Z,779.31
2018-10-19T00:51:22.095Z,779.29
2018-10-19T00:51:26.298Z,779.27
2018-10-19T00:51:30.642Z,779.27
2018-10-19T00:51:34.963Z,779.29
2018-10-19T00:51:39.271Z,779.26
2018-10-19T00:51:43.490Z,779.28
2018-10-19T00:51:47.384Z,779.26
2018-10-19T00:51:51.695Z,779.29
2018-10-19T00:51:55.897Z,779.3
2018-10-19T00:52:00.104Z,779.27
2018-10-19T00:52:04.437Z,779.3
2018-10-19T00:52:08.632Z,779.27
2018-10-19T00:52:12.886Z,779.29
2018-10-19T00:52:17.114Z,779.27
2018-10-19T00:52:21.424Z,779.29
2018-10-19T00:52:25.625Z,779.26
2018-10-19T00:52:29.944Z,779.26
2018-10-19T00:52:34.195Z,779.31
2018-10-19T00:52:38.402Z,779.28
2018-10-19T00:52:42.598Z,779.21
2018-10-19T00:52:46.803Z,779.28
2018-10-19T00:52:51.116Z,779.31
2018-10-19T00:52:55.193Z,779.32
2018-10-19T00:52:59.657Z,779.28
2018-10-19T00:53:04.021Z,779.29
2018-10-19T00:53:08.721Z,779.27
2018-10-19T00:53:13.318Z,779.3
2018-10-19T00:53:18.366Z,779.29
2018-10-19T00:53:22.694Z,779.31
2018-10-19T00:53:27.001Z,779.26
2018-10-19T00:53:31.198Z,779.29
2018-10-19T00:53:35.394Z,779.28
2018-10-19T00:53:39.718Z,779.29
2018-10-19T00:53:43.807Z,779.27